createdAt,value
2018-10-19T00:25:26.346Z,17.6
2018-10-19T00:26:15.880Z,17.6
2018-10-19T00:27:07.292Z,17.7
2018-10-19T00:27:55.712Z,17.6
2018-10-19T00:28:45.506Z,17.6
2018-10-19T00:29:36.690Z,17.7
2018-10-19T00:30:27.208Z,17.6
2018-10-19T00:31:16.459Z,17.6
2018-10-19T00:32:06.233Z,17.6
2018-10-19T00:32:55.653Z,17.6
2018-10-19T00:33:46.160Z,17.6
2018-10-19T00:34:36.497Z,17.6
2018-10-19T00:35:27.655Z,17.6
2018-10-19T00:36:16.412Z,17.6
2018-10-19T00:37:06.361Z,17.6
2018-10-19T00:37:56.427Z,17.6
2018-10-19T00:38:46.802Z,17.6
2018-10-19T00:39:36.497Z,17.6
2018-10-19T00:40:25.655Z,17.6
2018-10-19T00:41:17.642Z,17.6
2018-10-19T00:42:06.744Z,17.6
2018-10-19T00:42:56.815Z,17.6
2018-10-19T00:43:46.541Z,17.6
2018-10-19T00:44:36.894Z,17.6
2018-10-19T00:45:26.749Z,17.6
2018-10-19T00:46:17.329Z,17.6
2018-10-19T00:47:09.165Z,17.6
2018-10-19T00:47:56.908Z,17.6
2018-10-19T00:48:47.775Z,17.6
2018-10-19T00:49:37.601Z,17.6
2018-10-19T00:50:27.869Z,17.6
2018-10-19T00:51:20.116Z,17.6
2018-10-19T00:52:07.399Z,17.6
2018-10-19T00:52:57.562Z,17.6
2018-10-19T00:53:47.612Z,17.6
2018-10-19T00:54:38.476Z,17.6
2018-10-19T00:55:27.933Z,17.6
2018-10-19T00:56:17.815Z,17.6
2018-10-19T00:57:08.110Z,17.6
2018-10-19T00:57:57.879Z,17.6
2018-10-19T00:58:48.533Z,17.6
2018-10-19T00:59:38.308Z,17.6
2018-10-19T01:00:28.430Z,17.6
2018-10-19T01:01:17.562Z,17.6
2018-10-19T01:02:09.088Z,17.6
2018-10-19T01:02:58.717Z,17.6
2018-10-19T01:03:47.216Z,17.6
2018-10-19T01:04:37.866Z,17.6
2018-10-19T01:05:28.476Z,17.6
2018-10-19T01:06:19.116Z,17.6
2018-10-19T01:07:09.131Z,17.6
2018-10-19T01:07:59.198Z,17.6
2018-10-19T01:08:48.728Z,17.6
2018-10-19T01:09:39.314Z,17.6
2018-10-19T01:10:29.625Z,17.6
2018-10-19T01:11:21.262Z,17.6
2018-10-19T01:12:09.509Z,17.6
2018-10-19T01:12:59.340Z,17.6
2018-10-19T01:13:49.077Z,17.6
2018-10-19T01:14:39.143Z,17.6
2018-10-19T01:15:29.883Z,17.6
2018-10-19T01:16:19.283Z,17.6
2018-10-19T01:17:11.654Z,17.6
2018-10-19T01:17:59.792Z,17.6
2018-10-19T01:18:49.482Z,17.6
2018-10-19T01:19:39.867Z,17.6
2018-10-19T01:20:30.199Z,17.6
2018-10-19T01:21:20.852Z,17.6
2018-10-19T01:22:10.534Z,17.6
2018-10-19T01:23:00.394Z,17.6
2018-10-19T01:23:50.070Z,17.6
2018-10-19T01:24:40.144Z,17.6
2018-10-19T01:25:31.037Z,17.6
2018-10-19T01:26:20.551Z,17.6
2018-10-19T01:27:11.327Z,17.6
2018-10-19T01:27:59.816Z,17.6
2018-10-19T01:28:50.217Z,17.6
2018-10-19T01:29:40.867Z,17.6
2018-10-19T01:30:30.379Z,17.6
2018-10-19T01:31:20.966Z,17.5
2018-10-19T01:32:09.793Z,17.6
2018-10-19T01:33:01.714Z,17.6
2018-10-19T01:33:51.110Z,17.6
2018-10-19T01:34:41.225Z,17.5
2018-10-19T01:35:30.989Z,17.5
2018-10-19T01:36:21.098Z,17.6
2018-10-19T01:37:10.555Z,17.5
2018-10-19T01:38:01.877Z,17.5
2018-10-19T01:38:50.933Z,17.5
2018-10-19T01:39:40.929Z,17.6
2018-10-19T01:40:31.951Z,17.6
2018-10-19T01:41:22.409Z,17.5
2018-10-19T01:42:11.946Z,17.5
2018-10-19T01:43:02.105Z,17.5
2018-10-19T01:43:51.048Z,17.5
2018-10-19T01:44:40.271Z,17.5
2018-10-19T01:45:31.108Z,17.5
2018-10-19T01:46:21.475Z,17.5
2018-10-19T01:47:13.390Z,17.5
2018-10-19T01:48:01.091Z,17.5
2018-10-19T01:48:51.960Z,17.5
2018-10-19T01:49:41.157Z,17.5
2018-10-19T01:50:31.246Z,17.5
2018-10-19T01:51:22.640Z,17.5
2018-10-19T01:52:12.955Z,17.5
2018-10-19T01:53:02.488Z,17.5
2018-10-19T01:53:51.450Z,17.5
2018-10-19T01:54:42.130Z,17.5
2018-10-19T01:55:32.537Z,17.5
2018-10-19T01:56:23.020Z,17.5
2018-10-19T01:57:14.796Z,17.5
2018-10-19T01:58:02.959Z,17.5
2018-10-19T01:58:52.199Z,17.5
2018-10-19T01:59:43.406Z,17.5
2018-10-19T02:00:32.617Z,17.5
2018-10-19T02:01:23.151Z,17.5
2018-10-19T02:02:12.627Z,17.4
2018-10-19T02:03:02.963Z,17.5
2018-10-19T02:03:52.580Z,17.4
2018-10-19T02:04:44.167Z,17.4
2018-10-19T02:05:33.388Z,17.5
2018-10-19T02:06:23.628Z,17.5
2018-10-19T02:07:12.799Z,17.4
2018-10-19T02:08:02.892Z,17.4
2018-10-19T02:08:53.836Z,17.4
2018-10-19T02:09:42.958Z,17.4
2018-10-19T02:10:33.804Z,17.4
2018-10-19T02:11:23.470Z,17.4
2018-10-19T02:12:13.914Z,17.5
2018-10-19T02:13:03.712Z,17.4
2018-10-19T02:13:53.797Z,17.4
2018-10-19T02:14:43.265Z,17.4
2018-10-19T02:15:34.276Z,17.4
2018-10-19T02:16:22.898Z,17.4
2018-10-19T02:17:15.277Z,17.4
2018-10-19T02:18:03.271Z,17.4
2018-10-19T02:18:53.948Z,17.4
2018-10-19T02:19:43.119Z,17.4
2018-10-19T02:20:34.295Z,17.4
2018-10-19T02:21:24.146Z,17.4
2018-10-19T02:22:14.676Z,17.4
2018-10-19T02:23:05.537Z,17.4
2018-10-19T02:23:54.536Z,17.4
2018-10-19T02:24:44.861Z,17.4
2018-10-19T02:25:34.411Z,17.4
2018-10-19T02:26:24.392Z,17.4
2018-10-19T02:27:17.519Z,17.4
2018-10-19T02:28:04.925Z,17.4
2018-10-19T02:28:54.174Z,17.4
2018-10-19T02:29:45.253Z,17.4
2018-10-19T02:30:33.154Z,17.4
2018-10-19T02:31:24.667Z,17.4
2018-10-19T02:32:15.755Z,17.4
2018-10-19T02:33:06.682Z,17.4
2018-10-19T02:33:54.748Z,17.4
2018-10-19T02:34:45.450Z,17.4
2018-10-19T02:35:34.391Z,17.4
2018-10-19T02:36:25.536Z,17.4
2018-10-19T02:37:15.207Z,17.4
2018-10-19T02:38:05.376Z,17.4
2018-10-19T02:38:56.407Z,17.4
2018-10-19T02:39:46.044Z,17.4
2018-10-19T02:40:36.123Z,17.4
2018-10-19T02:41:27.001Z,17.4
2018-10-19T02:42:15.867Z,17.4
2018-10-19T02:43:05.660Z,17.4
2018-10-19T02:43:55.473Z,17.4
2018-10-19T02:44:45.367Z,17.4
2018-10-19T02:45:36.006Z,17.4
2018-10-19T02:46:26.345Z,17.4
2018-10-19T02:47:18.202Z,17.4
2018-10-19T02:48:05.557Z,17.4
2018-10-19T02:48:55.912Z,17.4
2018-10-19T02:49:45.974Z,17.4
2018-10-19T02:50:36.466Z,17.4
2018-10-19T02:51:27.441Z,17.4
2018-10-19T02:52:16.939Z,17.4
2018-10-19T02:53:08.394Z,17.4
2018-10-19T02:53:56.527Z,17.4
2018-10-19T02:54:46.266Z,17.4
2018-10-19T02:55:35.893Z,17.4
2018-10-19T02:56:26.705Z,17.4
2018-10-19T02:57:17.303Z,17.4
2018-10-19T02:58:07.655Z,17.4
2018-10-19T02:58:56.612Z,17.4
2018-10-19T02:59:46.435Z,17.4
2018-10-19T03:00:35.897Z,17.4
2018-10-19T03:01:26.605Z,17.4
2018-10-19T03:02:16.638Z,17.4
2018-10-19T03:03:08.280Z,17.4
2018-10-19T03:03:57.627Z,17.4
2018-10-19T03:04:47.203Z,17.4
2018-10-19T03:05:37.463Z,17.4
2018-10-19T03:06:26.314Z,17.4
2018-10-19T03:07:17.349Z,17.4
2018-10-19T03:08:07.852Z,17.4
2018-10-19T03:08:57.824Z,17.4
2018-10-19T03:09:47.382Z,17.4
2018-10-19T03:10:37.894Z,17.3
2018-10-19T03:11:29.111Z,17.4
2018-10-19T03:12:18.095Z,17.4
2018-10-19T03:13:07.462Z,17.3
2018-10-19T03:13:57.995Z,17.4
2018-10-19T03:14:47.612Z,17.4
2018-10-19T03:15:37.958Z,17.4
2018-10-19T03:16:28.013Z,17.3
2018-10-19T03:17:19.736Z,17.3
2018-10-19T03:18:08.173Z,17.3
2018-10-19T03:18:58.998Z,17.3
2018-10-19T03:19:48.601Z,17.3
2018-10-19T03:20:37.580Z,17.3
2018-10-19T03:21:27.915Z,17.3
2018-10-19T03:22:17.173Z,17.3
2018-10-19T03:23:10.991Z,17.3
2018-10-19T03:23:59.116Z,17.3
2018-10-19T03:24:48.113Z,17.4
2018-10-19T03:25:39.547Z,17.3
2018-10-19T03:26:29.473Z,17.3
2018-10-19T03:27:21.065Z,17.3
2018-10-19T03:28:08.833Z,17.3
2018-10-19T03:28:58.432Z,17.3
2018-10-19T03:29:49.104Z,17.3
2018-10-19T03:30:38.757Z,17.3
2018-10-19T03:31:28.927Z,17.3
2018-10-19T03:32:18.086Z,17.3
2018-10-19T03:33:10.948Z,17.3
2018-10-19T03:33:59.109Z,17.3
2018-10-19T03:34:49.934Z,17.3
2018-10-19T03:35:38.830Z,17.3
2018-10-19T03:36:29.124Z,17.3
2018-10-19T03:37:19.261Z,17.3
2018-10-19T03:38:09.327Z,17.3
2018-10-19T03:39:00.159Z,17.3
2018-10-19T03:39:49.974Z,17.3
2018-10-19T03:40:40.124Z,17.3
2018-10-19T03:41:29.811Z,17.3
2018-10-19T03:42:19.370Z,17.3
2018-10-19T03:43:10.164Z,17.3
2018-10-19T03:43:59.973Z,17.3
2018-10-19T03:44:50.682Z,17.3
2018-10-19T03:45:40.055Z,17.3
2018-10-19T03:46:30.503Z,17.3
2018-10-19T03:47:21.029Z,17.3
2018-10-19T03:48:10.428Z,17.3
2018-10-19T03:49:01.066Z,17.3
2018-10-19T03:49:51.217Z,17.3
2018-10-19T03:50:41.655Z,17.3
2018-10-19T03:51:30.226Z,17.3
2018-10-19T03:52:20.843Z,17.3
2018-10-19T03:53:12.954Z,17.3
2018-10-19T03:54:00.772Z,17.3
2018-10-19T03:54:50.748Z,17.3
2018-10-19T03:55:41.425Z,17.3
2018-10-19T03:56:31.978Z,17.3
2018-10-19T03:57:23.685Z,17.3
2018-10-19T03:58:11.302Z,17.3
2018-10-19T03:59:01.978Z,17.3
2018-10-19T03:59:51.985Z,17.3
2018-10-19T04:00:41.948Z,17.3
2018-10-19T04:01:32.113Z,17.3
2018-10-19T04:02:21.908Z,17.3
2018-10-19T04:03:14.872Z,17.3
2018-10-19T04:04:01.744Z,17.3
2018-10-19T04:04:52.444Z,17.3
2018-10-19T04:05:42.662Z,17.3
2018-10-19T04:06:32.172Z,17.3
2018-10-19T04:07:22.207Z,17.3
2018-10-19T04:08:11.435Z,17.3
2018-10-19T04:09:02.677Z,17.3
2018-10-19T04:09:51.593Z,17.3
2018-10-19T04:10:42.443Z,17.3
2018-10-19T04:11:32.503Z,17.3
2018-10-19T04:12:22.023Z,17.3
2018-10-19T04:13:12.610Z,17.3
2018-10-19T04:14:02.442Z,17.3
2018-10-19T04:14:52.578Z,17.3
2018-10-19T04:15:43.689Z,17.3
2018-10-19T04:16:33.441Z,17.3
2018-10-19T04:17:23.425Z,17.2
2018-10-19T04:18:13.553Z,17.3
2018-10-19T04:19:02.864Z,17.3
2018-10-19T04:19:52.878Z,17.3
2018-10-19T04:20:43.292Z,17.3
2018-10-19T04:21:33.522Z,17.3
2018-10-19T04:22:23.022Z,17.2
2018-10-19T04:23:15.277Z,17.2
2018-10-19T04:24:03.458Z,17.2
2018-10-19T04:24:52.672Z,17.2
2018-10-19T04:25:43.856Z,17.2
2018-10-19T04:26:34.712Z,17.2
2018-10-19T04:27:26.087Z,17.2
2018-10-19T04:28:13.702Z,17.2
2018-10-19T04:29:05.353Z,17.2
2018-10-19T04:29:54.478Z,17.2
2018-10-19T04:30:44.456Z,17.2
2018-10-19T04:31:34.284Z,17.2
2018-10-19T04:32:23.451Z,17.2
2018-10-19T04:33:16.275Z,17.2
2018-10-19T04:34:03.904Z,17.2
2018-10-19T04:34:54.691Z,17.2
2018-10-19T04:35:42.905Z,17.2
2018-10-19T04:36:34.620Z,17.2
2018-10-19T04:54:45.703Z,17.1
2018-10-19T04:55:36.575Z,17.1
2018-10-19T04:56:25.199Z,17.2
2018-10-19T04:57:18.710Z,17.2
2018-10-19T04:58:06.238Z,17.2
2018-10-19T04:58:56.480Z,17.2
2018-10-19T04:59:45.470Z,17.1
2018-10-19T05:00:36.707Z,17.1
2018-10-19T05:01:26.512Z,17.1
2018-10-19T05:02:16.579Z,17.1
2018-10-19T05:03:08.035Z,17.1
2018-10-19T05:03:56.063Z,17.1
2018-10-19T05:04:47.176Z,17.1
2018-10-19T05:05:37.559Z,17.1
2018-10-19T05:06:28.260Z,17.1
2018-10-19T05:07:17.214Z,17.1
2018-10-19T05:08:08.755Z,17.1
2018-10-19T05:08:56.478Z,17.1
2018-10-19T05:09:47.041Z,17.1
2018-10-19T05:10:36.370Z,17.1
2018-10-19T05:11:28.030Z,17.1
2018-10-19T05:12:17.104Z,17.1
2018-10-19T05:13:08.873Z,17.1
2018-10-19T05:13:58.254Z,17.1
2018-10-19T05:14:47.730Z,17.1
2018-10-19T05:15:36.770Z,17.1
2018-10-19T05:16:28.002Z,17.1
2018-10-19T05:17:18.971Z,17.1
2018-10-19T05:18:07.921Z,17.1
2018-10-19T05:18:58.103Z,17.1
2018-10-19T05:19:48.109Z,17.1
2018-10-19T05:20:37.369Z,17.1
2018-10-19T05:21:28.111Z,17.1
2018-10-19T05:22:18.283Z,17.1
2018-10-19T05:23:09.988Z,17.1
2018-10-19T05:23:59.315Z,17.1
2018-10-19T05:24:50.332Z,17.1
2018-10-19T05:25:37.819Z,17.1
2018-10-19T05:26:28.519Z,17.1
2018-10-19T05:27:18.467Z,17.1
2018-10-19T05:28:07.763Z,17.1
2018-10-19T05:28:58.449Z,17.1
2018-10-19T05:29:48.000Z,17.1
2018-10-19T05:30:39.055Z,17.1
2018-10-19T05:31:29.393Z,17.1
2018-10-19T05:32:20.712Z,17.1
2018-10-19T05:33:10.274Z,17.1
2018-10-19T05:33:59.132Z,17.1
2018-10-19T05:34:49.660Z,17.1
2018-10-19T05:35:39.352Z,17.1
2018-10-19T05:36:29.146Z,17.1
2018-10-19T05:37:19.479Z,17.1
2018-10-19T05:38:10.882Z,17.1
2018-10-19T05:38:59.052Z,17.1
2018-10-19T05:39:49.383Z,17.1
2018-10-19T05:40:39.459Z,17.1
2018-10-19T05:41:29.850Z,17.1
2018-10-19T05:42:19.524Z,17.1
2018-10-19T05:43:10.275Z,17.1
2018-10-19T05:43:59.914Z,17.1
2018-10-19T05:44:49.882Z,17.1
2018-10-19T05:45:38.881Z,17.1
2018-10-19T05:46:29.530Z,17.1
2018-10-19T05:47:21.697Z,17.1
2018-10-19T05:48:09.621Z,17.1
2018-10-19T05:48:59.989Z,17.1
2018-10-19T05:49:50.581Z,17.1
2018-10-19T05:50:40.078Z,17.1
2018-10-19T05:51:30.987Z,17.1
2018-10-19T05:52:21.383Z,17.1
2018-10-19T05:53:12.577Z,17.1
2018-10-19T05:54:00.573Z,17.1
2018-10-19T05:54:49.197Z,17.1
2018-10-19T05:55:39.296Z,17.1
2018-10-19T05:56:30.233Z,17.1
2018-10-19T05:57:19.473Z,17.1
2018-10-19T05:58:10.352Z,17.1
2018-10-19T05:59:01.942Z,17.1
2018-10-19T05:59:50.443Z,17.1
2018-10-19T06:00:41.040Z,17.1
2018-10-19T06:01:29.973Z,17.1
2018-10-19T06:02:23.279Z,17.1
2018-10-19T06:03:11.284Z,17.1
2018-10-19T06:04:00.331Z,17.1
2018-10-19T06:04:51.225Z,17.1
2018-10-19T06:05:40.708Z,17.1
2018-10-19T06:06:30.113Z,17.1
2018-10-19T06:07:19.900Z,17.1
2018-10-19T06:08:13.048Z,17.1
2018-10-19T06:09:00.889Z,17.1
2018-10-19T06:09:51.835Z,17.1
2018-10-19T06:10:41.521Z,17.1
2018-10-19T06:11:30.472Z,17.1
2018-10-19T06:12:20.905Z,17.1
2018-10-19T06:13:11.482Z,17.1
2018-10-19T06:14:02.968Z,17.1
2018-10-19T06:14:51.613Z,17.1
2018-10-19T06:15:41.944Z,17.1
2018-10-19T06:16:32.295Z,17.1
2018-10-19T06:17:23.289Z,17.1
2018-10-19T06:18:10.960Z,17.1
2018-10-19T06:19:02.142Z,17.1
2018-10-19T06:19:52.239Z,17.1
2018-10-19T06:20:42.837Z,17.1
2018-10-19T06:21:32.441Z,17.1
2018-10-19T06:22:22.949Z,17.1
2018-10-19T06:24:01.966Z,17.1
2018-10-19T06:24:52.334Z,17.1
2018-10-19T06:25:41.513Z,17.1
2018-10-19T06:26:35.648Z,17.1
2018-10-19T06:27:21.914Z,17.1
2018-10-19T06:28:12.579Z,17.1
2018-10-19T06:29:03.332Z,17.1
2018-10-19T06:30:42.486Z,17.1
2018-10-19T06:31:33.067Z,17.1
2018-10-19T06:32:23.504Z,17.1
2018-10-19T06:37:23.508Z,17.1
2018-10-19T06:38:13.546Z,17.1
2018-10-19T06:40:44.704Z,17.1
2018-10-19T06:41:34.134Z,17.1
2018-10-19T06:44:05.458Z,17.1
2018-10-19T06:46:34.925Z,17.1
2018-10-19T06:47:27.133Z,17.1
2018-10-19T06:49:54.686Z,17.1
2018-10-19T06:50:43.318Z,17.1
2018-10-19T07:06:35.988Z,17.1
2018-10-19T07:09:05.571Z,17.1
2018-10-19T07:09:55.327Z,17.1
2018-10-19T07:10:45.396Z,17.1
2018-10-19T07:11:35.138Z,17.1
2018-10-19T07:15:46.496Z,17.1
2018-10-19T07:30:47.231Z,17.1
2018-10-19T07:36:39.875Z,17.1
2018-10-19T07:45:48.205Z,17.1
2018-10-19T07:46:38.033Z,17.1
2018-10-19T07:55:48.447Z,17.1
2018-10-19T07:56:38.497Z,17.1
2018-10-19T07:57:29.665Z,17.1
2018-10-19T07:58:19.732Z,17.1
2018-10-19T07:59:11.950Z,17.1
2018-10-19T08:00:00.154Z,17.1
2018-10-19T08:00:50.967Z,17.1
2018-10-19T08:01:39.741Z,17.1
2018-10-19T08:03:19.553Z,17.1
2018-10-19T08:04:09.930Z,17.1
2018-10-19T08:05:49.169Z,17.1
2018-10-19T08:07:30.704Z,17.1
2018-10-19T08:08:21.344Z,17.1
2018-10-19T08:09:09.539Z,17.1
2018-10-19T08:10:00.864Z,17.1
2018-10-19T08:10:51.004Z,17.1
2018-10-19T08:11:43.431Z,17.1
2018-10-19T08:12:30.799Z,17.1
2018-10-19T08:13:20.128Z,17.1
2018-10-19T08:14:13.406Z,17.1
2018-10-19T08:15:00.413Z,17.1
2018-10-19T08:15:51.334Z,17.1
2018-10-19T08:16:41.143Z,17.1
2018-10-19T08:17:30.920Z,17.1
2018-10-19T08:18:21.539Z,17.1
2018-10-19T08:19:10.998Z,17.1
2018-10-19T08:20:00.888Z,17.1
2018-10-19T08:20:50.655Z,17.1
2018-10-19T08:21:40.924Z,17.1
2018-10-19T08:22:31.030Z,17.1
2018-10-19T08:23:22.505Z,17.1
2018-10-19T08:24:11.383Z,17.1
2018-10-19T08:25:01.467Z,17.1
2018-10-19T08:25:52.059Z,17.1
2018-10-19T08:26:41.615Z,17.1
2018-10-19T08:28:21.409Z,17.1
2018-10-19T08:29:14.573Z,17.1
2018-10-19T08:30:01.250Z,17.1
2018-10-19T08:30:51.598Z,17.1
2018-10-19T08:31:42.047Z,17.1
2018-10-19T08:32:32.333Z,17.1
2018-10-19T08:33:22.827Z,17.1
2018-10-19T08:34:12.152Z,17.1
2018-10-19T08:35:03.368Z,17.1
2018-10-19T08:35:52.024Z,17.1
2018-10-19T08:36:41.967Z,17.1
2018-10-19T08:37:32.100Z,17.1
2018-10-19T08:38:22.607Z,17.1
2018-10-19T08:39:12.390Z,17.1
2018-10-19T08:40:02.741Z,17.1
2018-10-19T08:40:53.251Z,17.1
2018-10-19T08:41:45.028Z,17.1
2018-10-19T08:42:32.793Z,17.1
2018-10-19T08:43:24.786Z,17.1
2018-10-19T08:44:12.893Z,17.1
2018-10-19T08:45:03.508Z,17.1
2018-10-19T08:45:51.963Z,17.1
2018-10-19T08:46:42.587Z,17.1
2018-10-19T08:47:33.617Z,17.1
2018-10-19T08:48:22.929Z,17.1
2018-10-19T08:49:14.715Z,17.1
2018-10-19T08:50:03.104Z,17.1
2018-10-19T08:50:52.102Z,17.1
2018-10-19T08:51:43.224Z,17.1
2018-10-19T08:52:33.579Z,17.1
2018-10-19T09:09:05.155Z,17.1
2018-10-19T09:09:53.449Z,17.1
2018-10-19T09:10:44.349Z,17.1
2018-10-19T09:11:35.635Z,17.1
2018-10-19T09:12:24.738Z,17.1
2018-10-19T09:13:13.510Z,17.1
2018-10-19T09:14:04.302Z,17.1
2018-10-19T09:14:53.993Z,17.1
2018-10-19T09:15:44.163Z,17.1
2018-10-19T09:16:34.215Z,17.1
2018-10-19T09:17:25.860Z,17.1
2018-10-19T09:18:14.119Z,17.1
2018-10-19T09:19:05.511Z,17.1
2018-10-19T09:19:53.544Z,17.1
2018-10-19T09:20:43.627Z,17.1
2018-10-19T09:21:34.301Z,17.1
2018-10-19T09:22:24.329Z,17.1
2018-10-19T09:23:15.880Z,17.1
2018-10-19T09:24:04.409Z,17.1
2018-10-19T09:24:54.289Z,17.1
2018-10-19T09:25:44.366Z,17.1
2018-10-19T09:26:34.324Z,17.2
2018-10-19T09:27:25.465Z,17.1
2018-10-19T09:28:15.024Z,17.1
2018-10-19T09:29:07.123Z,17.1
2018-10-19T09:29:54.956Z,17.1
2018-10-19T09:30:44.967Z,17.1
2018-10-19T09:31:34.691Z,17.1
2018-10-19T09:32:24.645Z,17.1
2018-10-19T09:33:17.616Z,17.1
2018-10-19T09:34:04.874Z,17.1
2018-10-19T09:34:55.479Z,17.1
2018-10-19T09:35:47.506Z,17.1
2018-10-19T09:36:40.400Z,17.2
2018-10-19T09:37:24.578Z,17.1
2018-10-19T09:38:14.999Z,17.2
2018-10-19T09:39:05.270Z,17.2
2018-10-19T09:39:55.898Z,17.2
2018-10-19T09:40:45.995Z,17.1
2018-10-19T09:41:36.374Z,17.1
2018-10-19T09:42:25.643Z,17.2
2018-10-19T09:43:17.223Z,17.1
2018-10-19T09:44:06.483Z,17.1
2018-10-19T09:44:57.335Z,17.2
2018-10-19T09:45:46.083Z,17.2
2018-10-19T09:46:35.886Z,17.1
2018-10-19T09:47:26.770Z,17.1
2018-10-19T09:48:17.040Z,17.2
2018-10-19T09:49:08.279Z,17.2
2018-10-19T09:49:57.363Z,17.1
2018-10-19T09:50:47.486Z,17.2
2018-10-19T09:51:37.045Z,17.2
2018-10-19T09:52:26.852Z,17.2
2018-10-19T09:53:17.751Z,17.2
2018-10-19T09:54:05.835Z,17.2
2018-10-19T09:54:57.353Z,17.2
2018-10-19T09:55:46.207Z,17.2
2018-10-19T09:56:37.065Z,17.2
2018-10-19T09:57:27.430Z,17.2
2018-10-19T09:58:17.475Z,17.2
2018-10-19T09:59:09.057Z,17.2
2018-10-19T09:59:56.983Z,17.2
2018-10-19T10:00:47.640Z,17.2
2018-10-19T10:01:37.463Z,17.2
2018-10-19T10:02:27.847Z,17.2
2018-10-19T10:03:20.760Z,17.2
2018-10-19T10:04:08.287Z,17.2
2018-10-19T10:04:59.751Z,17.2
2018-10-19T10:05:48.710Z,17.2
2018-10-19T10:06:38.252Z,17.2
2018-10-19T10:07:28.209Z,17.2
2018-10-19T10:08:18.365Z,17.2
2018-10-19T10:09:10.604Z,17.2
2018-10-19T10:09:58.380Z,17.3
2018-10-19T10:10:48.086Z,17.2
2018-10-19T10:11:38.070Z,17.2
2018-10-19T10:12:28.085Z,17.2
2018-10-19T10:13:20.284Z,17.2
2018-10-19T10:14:08.109Z,17.2
2018-10-19T10:15:02.172Z,17.2
2018-10-19T10:15:50.570Z,17.2
2018-10-19T10:16:38.736Z,17.2
2018-10-19T10:17:28.738Z,17.3
2018-10-19T10:18:18.438Z,17.2
2018-10-19T10:19:10.835Z,17.3
2018-10-19T10:19:59.156Z,17.2
2018-10-19T10:20:50.249Z,17.2
2018-10-19T10:21:38.103Z,17.2
2018-10-19T10:22:29.066Z,17.2
2018-10-19T10:23:19.029Z,17.3
2018-10-19T10:24:09.484Z,17.2
2018-10-19T10:25:00.313Z,17.3
2018-10-19T10:25:48.726Z,17.3
2018-10-19T10:26:39.304Z,17.3
2018-10-19T10:27:28.608Z,17.2
2018-10-19T10:28:20.586Z,17.3
2018-10-19T10:29:10.368Z,17.3
2018-10-19T10:29:59.371Z,17.3
2018-10-19T10:30:49.724Z,17.3
2018-10-19T10:31:40.223Z,17.3
2018-10-19T10:32:32.199Z,17.3
2018-10-19T10:33:17.948Z,17.3
2018-10-19T10:34:10.901Z,17.3
2018-10-19T10:34:59.990Z,17.3
2018-10-19T10:35:50.308Z,17.3
2018-10-19T10:36:41.128Z,17.3
2018-10-19T10:37:29.916Z,17.3
2018-10-19T10:38:19.695Z,17.3
2018-10-19T10:39:14.253Z,17.3
2018-10-19T10:40:00.887Z,17.3
2018-10-19T10:40:50.709Z,17.3
2018-10-19T10:41:41.057Z,17.3
2018-10-19T10:42:30.004Z,17.3
2018-10-19T10:43:21.243Z,17.3
2018-10-19T10:44:10.137Z,17.3
2018-10-19T10:45:00.765Z,17.3
2018-10-19T10:45:50.007Z,17.3
2018-10-19T10:46:41.124Z,17.3
2018-10-19T10:47:30.389Z,17.3
2018-10-19T10:48:19.604Z,17.3
2018-10-19T10:49:13.050Z,17.3
2018-10-19T10:50:00.583Z,17.3
2018-10-19T10:50:51.732Z,17.3
2018-10-19T10:51:40.679Z,17.3
2018-10-19T10:52:32.112Z,17.3
2018-10-19T10:53:21.029Z,17.3
2018-10-19T10:54:10.795Z,17.3
2018-10-19T10:55:02.189Z,17.3
2018-10-19T10:55:51.901Z,17.3
2018-10-19T10:56:42.309Z,17.3
2018-10-19T10:57:31.594Z,17.3
2018-10-19T10:58:22.383Z,17.3
2018-10-19T10:59:12.038Z,17.3
2018-10-19T11:00:02.621Z,17.3
2018-10-19T11:00:52.159Z,17.3
2018-10-19T11:01:41.961Z,17.3
2018-10-19T11:02:33.035Z,17.3
2018-10-19T11:03:22.629Z,17.3
2018-10-19T11:04:13.506Z,17.3
2018-10-19T11:05:01.311Z,17.3
2018-10-19T11:05:51.743Z,17.3
2018-10-19T11:06:42.811Z,17.3
2018-10-19T11:07:38.899Z,17.3
2018-10-19T11:08:23.471Z,17.3
2018-10-19T11:09:11.936Z,17.3
2018-10-19T11:10:03.766Z,17.3
2018-10-19T11:10:53.191Z,17.3
2018-10-19T11:11:43.283Z,17.3
2018-10-19T11:12:33.304Z,17.3
2018-10-19T11:13:23.139Z,17.3
2018-10-19T11:14:13.149Z,17.3
2018-10-19T11:15:02.986Z,17.3
2018-10-19T11:15:53.676Z,17.3
2018-10-19T11:16:42.790Z,17.3
2018-10-19T11:17:33.612Z,17.3
2018-10-19T11:18:22.965Z,17.3
2018-10-19T11:19:16.063Z,17.3
2018-10-19T11:20:03.213Z,17.3
2018-10-19T11:20:53.700Z,17.3
2018-10-19T11:21:44.024Z,17.3
2018-10-19T11:22:33.755Z,17.3
2018-10-19T11:23:23.596Z,17.3
2018-10-19T11:24:15.525Z,17.3
2018-10-19T11:25:04.778Z,17.3
2018-10-19T11:25:53.747Z,17.3
2018-10-19T11:26:44.116Z,17.3
2018-10-19T11:27:34.910Z,17.4
2018-10-19T11:28:24.769Z,17.4
2018-10-19T11:29:14.515Z,17.4
2018-10-19T11:30:04.101Z,17.4
2018-10-19T11:30:55.835Z,17.4
2018-10-19T11:31:44.472Z,17.4
2018-10-19T11:32:34.809Z,17.4
2018-10-19T11:33:24.894Z,17.4
2018-10-19T11:34:16.381Z,17.4
2018-10-19T11:35:04.159Z,17.4
2018-10-19T11:35:54.552Z,17.4
2018-10-19T11:36:45.682Z,17.4
2018-10-19T11:37:35.982Z,17.4
2018-10-19T11:38:25.246Z,17.4
2018-10-19T11:39:15.333Z,17.4
2018-10-19T11:40:06.400Z,17.4
2018-10-19T11:40:55.230Z,17.4
2018-10-19T11:41:45.357Z,17.4
2018-10-19T11:42:35.318Z,17.4
2018-10-19T11:43:26.614Z,17.4
2018-10-19T11:44:14.889Z,17.4
2018-10-19T11:45:05.551Z,17.4
2018-10-19T11:45:55.413Z,17.5
2018-10-19T11:46:44.805Z,17.5
2018-10-19T11:47:35.414Z,17.4
2018-10-19T11:48:24.989Z,17.5
2018-10-19T11:49:17.369Z,17.5
2018-10-19T11:50:05.656Z,17.5
2018-10-19T11:50:55.084Z,17.5
2018-10-19T11:51:46.524Z,17.5
2018-10-19T11:52:35.142Z,17.5
2018-10-19T11:53:26.336Z,17.5
2018-10-19T11:54:16.490Z,17.5
2018-10-19T11:55:08.006Z,17.5
2018-10-19T11:55:55.410Z,17.5
2018-10-19T11:56:46.295Z,17.5
2018-10-19T11:57:36.713Z,17.5
2018-10-19T11:58:26.980Z,17.5
2018-10-19T11:59:16.417Z,17.5
2018-10-19T12:00:06.841Z,17.6
2018-10-19T12:00:57.022Z,17.6
2018-10-19T12:01:47.002Z,17.6
2018-10-19T12:02:36.968Z,17.6
2018-10-19T12:03:27.774Z,17.6
2018-10-19T12:04:18.999Z,17.6
2018-10-19T12:05:07.220Z,17.6
2018-10-19T12:05:57.015Z,17.6
2018-10-19T12:06:47.333Z,17.6
2018-10-19T12:07:37.898Z,17.6
2018-10-19T12:08:28.157Z,17.6
2018-10-19T12:09:18.524Z,17.6
2018-10-19T12:10:08.477Z,17.6
2018-10-19T12:10:58.357Z,17.6
2018-10-19T12:11:48.158Z,17.6
2018-10-19T12:12:38.124Z,17.6
2018-10-19T12:13:27.237Z,17.6
2018-10-19T12:14:17.766Z,17.6
2018-10-19T12:15:10.058Z,17.6
2018-10-19T12:15:58.514Z,17.6
2018-10-19T12:16:50.943Z,17.6
2018-10-19T12:17:37.869Z,17.6
2018-10-19T12:18:27.870Z,17.6
2018-10-19T12:19:18.482Z,17.6
2018-10-19T12:20:07.128Z,17.6
2018-10-19T12:20:58.741Z,17.6
2018-10-19T12:21:48.479Z,17.6
2018-10-19T12:22:38.800Z,17.6
2018-10-19T12:23:27.499Z,17.6
2018-10-19T12:24:19.164Z,17.6
2018-10-19T12:25:10.554Z,17.6
2018-10-19T12:25:59.052Z,17.6
2018-10-19T12:26:49.127Z,17.6
2018-10-19T12:27:38.879Z,17.6
2018-10-19T12:28:28.894Z,17.6
2018-10-19T12:29:18.546Z,17.6
2018-10-19T12:30:08.797Z,17.7
2018-10-19T12:30:59.545Z,17.7
2018-10-19T12:31:48.437Z,17.7
2018-10-19T12:32:39.066Z,17.7
2018-10-19T12:33:29.681Z,17.7
2018-10-19T12:34:19.179Z,17.7
2018-10-19T12:35:09.913Z,17.7
2018-10-19T12:35:59.809Z,17.7
2018-10-19T12:36:48.773Z,17.7
2018-10-19T12:37:39.337Z,17.7
2018-10-19T12:38:29.019Z,17.7
2018-10-19T12:39:21.396Z,17.7
2018-10-19T12:40:09.727Z,17.7
2018-10-19T12:41:00.053Z,17.7
2018-10-19T12:41:50.273Z,17.7
2018-10-19T12:42:39.512Z,17.7
2018-10-19T12:43:30.389Z,17.7
2018-10-19T12:44:19.550Z,17.7
2018-10-19T12:45:11.050Z,17.7
2018-10-19T12:45:59.710Z,17.8
2018-10-19T12:46:49.250Z,17.7
2018-10-19T12:47:40.265Z,17.8
2018-10-19T12:48:30.135Z,17.8
2018-10-19T12:49:21.314Z,17.8
2018-10-19T12:50:10.505Z,17.7
2018-10-19T12:51:00.956Z,17.8
2018-10-19T12:51:49.846Z,17.8
2018-10-19T12:52:40.467Z,17.8
2018-10-19T12:53:29.768Z,17.8
2018-10-19T12:54:21.601Z,17.8
2018-10-19T12:55:12.771Z,17.8
2018-10-19T12:56:00.472Z,17.8
2018-10-19T12:56:50.849Z,17.8
2018-10-19T12:57:43.134Z,17.8
2018-10-19T12:58:30.611Z,17.8
2018-10-19T12:59:19.951Z,17.8
2018-10-19T13:00:10.512Z,17.8
2018-10-19T13:01:01.542Z,17.8
2018-10-19T13:01:50.948Z,17.8
2018-10-19T13:02:41.254Z,17.8
2018-10-19T13:03:33.568Z,17.8
2018-10-19T13:04:21.099Z,17.8
2018-10-19T13:05:11.164Z,17.8
2018-10-19T13:06:01.739Z,17.8
2018-10-19T13:06:51.831Z,17.8
2018-10-19T13:07:41.739Z,17.8
2018-10-19T13:08:31.357Z,17.8
2018-10-19T13:09:22.802Z,17.8
2018-10-19T13:10:11.457Z,17.8
2018-10-19T13:11:01.281Z,17.8
2018-10-19T13:11:50.834Z,17.8
2018-10-19T13:12:42.543Z,17.8
2018-10-19T13:13:32.821Z,17.8
2018-10-19T13:14:22.123Z,17.8
2018-10-19T13:15:14.691Z,17.8
2018-10-19T13:16:02.435Z,17.8